createdAt,value
2018-12-28T00:00:48.330Z,29.93
2018-12-28T00:03:17.813Z,30.23
2018-12-28T00:05:47.650Z,29.23
2018-12-28T00:08:17.228Z,31.30
2018-12-28T00:10:46.890Z,30.30
2018-12-28T00:13:16.964Z,31.03
2018-12-28T00:15:46.800Z,30.83
2018-12-28T00:18:16.624Z,31.43
2018-12-28T00:20:46.120Z,33.50
2018-12-28T00:23:15.561Z,32.93
2018-12-28T00:25:45.262Z,33.40
2018-12-28T00:28:15.478Z,32.43
2018-12-28T00:30:45.642Z,33.03
2018-12-28T00:33:16.063Z,34.03
2018-12-28T00:35:45.497Z,32.73
2018-12-28T00:38:15.342Z,34.73
2018-12-28T00:40:44.850Z,33.60
2018-12-28T00:43:14.460Z,34.30
2018-12-28T00:45:44.287Z,34.13
2018-12-28T00:48:14.274Z,33.03
2018-12-28T00:50:44.253Z,35.17
2018-12-28T00:53:14.426Z,33.20
2018-12-28T00:55:43.946Z,33.67
2018-12-28T00:58:13.426Z,34.23
2018-12-28T01:00:42.790Z,31.97
2018-12-28T01:03:12.586Z,33.00
2018-12-28T01:05:42.179Z,32.10
2018-12-28T01:08:12.573Z,33.10
2018-12-28T01:10:42.417Z,33.80
2018-12-28T01:13:12.018Z,32.80
2018-12-28T01:15:41.683Z,31.30
2018-12-28T01:18:11.395Z,33.60
2018-12-28T01:20:41.059Z,33.03
2018-12-28T01:23:10.819Z,34.30
2018-12-28T01:25:40.499Z,33.90
2018-12-28T01:28:10.553Z,32.93
2018-12-28T01:30:40.281Z,33.23
2018-12-28T01:33:09.983Z,32.73
2018-12-28T01:35:39.671Z,35.27
2018-12-28T01:38:09.318Z,32.10
2018-12-28T01:40:39.019Z,33.23
2018-12-28T01:43:08.659Z,33.57
2018-12-28T01:45:38.745Z,33.10
2018-12-28T01:48:08.404Z,31.60
2018-12-28T01:50:38.137Z,31.27
2018-12-28T01:53:07.788Z,32.13
2018-12-28T01:55:37.492Z,32.33
2018-12-28T01:58:07.116Z,30.93
2018-12-28T02:00:36.841Z,32.90
2018-12-28T02:03:06.531Z,31.60
2018-12-28T02:05:36.402Z,32.97
2018-12-28T02:08:06.329Z,32.43
2018-12-28T02:10:36.347Z,31.47
2018-12-28T02:13:06.038Z,32.50
2018-12-28T02:15:36.344Z,32.40
2018-12-28T02:18:07.356Z,33.53
2018-12-28T02:20:37.035Z,32.90
2018-12-28T02:23:07.150Z,30.33
2018-12-28T02:25:36.634Z,32.23
2018-12-28T02:28:06.137Z,32.63
2018-12-28T02:30:50.972Z,33.37
2018-12-28T02:33:21.559Z,32.33
2018-12-28T02:35:51.392Z,33.97
2018-12-28T02:38:20.905Z,32.60
2018-12-28T02:40:50.664Z,32.47
2018-12-28T02:43:20.502Z,31.50
2018-12-28T02:45:50.202Z,30.60
2018-12-28T02:48:19.898Z,32.50
2018-12-28T02:50:49.368Z,32.10
2018-12-28T02:53:18.843Z,29.43
2018-12-28T02:55:48.251Z,30.87
2018-12-28T02:58:17.589Z,29.60
2018-12-28T03:00:46.988Z,30.40
2018-12-28T03:03:16.405Z,31.27
2018-12-28T03:05:46.293Z,30.13
2018-12-28T03:08:16.343Z,30.77
2018-12-28T03:10:46.060Z,29.67
2018-12-28T03:13:15.884Z,29.60
2018-12-28T03:15:45.769Z,30.40
2018-12-28T03:18:15.313Z,30.07
2018-12-28T03:20:44.935Z,29.07
2018-12-28T03:23:14.421Z,29.40
2018-12-28T03:25:43.821Z,30.20
2018-12-28T03:28:13.398Z,29.03
2018-12-28T03:30:43.115Z,26.93
2018-12-28T03:33:12.873Z,28.17
2018-12-28T03:35:42.272Z,29.17
2018-12-28T03:38:12.111Z,28.87
2018-12-28T03:40:42.089Z,28.50
2018-12-28T03:43:11.927Z,28.40
2018-12-28T03:45:41.298Z,28.43
2018-12-28T03:48:10.673Z,27.00
2018-12-28T03:50:40.512Z,29.40
2018-12-28T03:53:09.888Z,28.13
2018-12-28T03:55:39.840Z,28.83
2018-12-28T03:58:09.233Z,27.63
2018-12-28T04:00:38.610Z,28.17
2018-12-28T04:03:07.980Z,27.83
2018-12-28T04:05:37.357Z,28.10
2018-12-28T04:08:06.891Z,28.90
2018-12-28T04:10:36.395Z,29.63
2018-12-28T04:13:05.794Z,29.70
2018-12-28T04:15:35.154Z,28.70
2018-12-28T04:18:04.568Z,26.73
2018-12-28T04:20:33.978Z,28.33
2018-12-28T04:23:03.481Z,28.00
2018-12-28T04:25:33.236Z,27.47
2018-12-28T04:28:02.706Z,25.53
2018-12-28T04:30:32.003Z,27.43
2018-12-28T04:33:01.770Z,26.73
2018-12-28T04:35:31.171Z,27.07
2018-12-28T04:38:00.964Z,26.03
2018-12-28T04:40:30.381Z,24.53
2018-12-28T04:42:59.840Z,25.97
2018-12-28T04:45:29.402Z,25.67
2018-12-28T04:47:58.872Z,24.23
2018-12-28T04:50:28.682Z,23.73
2018-12-28T04:52:58.817Z,24.63
2018-12-28T04:55:28.685Z,24.17
2018-12-28T04:57:58.779Z,23.93
2018-12-28T05:00:33.745Z,25.30
2018-12-28T05:03:20.474Z,26.23
2018-12-28T05:06:21.892Z,24.87
2018-12-28T05:09:26.865Z,24.83
2018-12-28T05:12:45.891Z,25.70
2018-12-28T05:15:59.352Z,25.80
2018-12-28T05:18:52.743Z,24.37
2018-12-28T05:22:14.122Z,25.10
2018-12-28T05:25:12.781Z,23.20
2018-12-28T05:28:31.018Z,23.70
2018-12-28T05:31:36.936Z,23.73
2018-12-28T05:34:06.460Z,24.20
2018-12-28T05:36:36.013Z,24.33
2018-12-28T05:39:09.659Z,25.10
2018-12-28T05:41:38.995Z,24.33
2018-12-28T05:44:08.473Z,24.13
2018-12-28T05:46:37.995Z,24.63
2018-12-28T05:49:07.369Z,24.93
2018-12-28T05:51:36.826Z,25.13
2018-12-28T05:54:06.244Z,23.97
2018-12-28T05:56:35.611Z,24.77
2018-12-28T05:59:05.082Z,23.70
2018-12-28T06:01:34.453Z,25.23
2018-12-28T06:04:03.814Z,25.10
2018-12-28T06:06:33.630Z,24.37
2018-12-28T06:09:03.191Z,24.67
2018-12-28T06:11:32.593Z,24.90
2018-12-28T06:14:03.025Z,26.13
2018-12-28T06:16:32.566Z,25.07
2018-12-28T06:19:01.942Z,24.83
2018-12-28T06:21:31.345Z,25.97
2018-12-28T06:24:01.048Z,25.97
2018-12-28T06:26:31.132Z,25.97
2018-12-28T06:29:00.555Z,26.63
2018-12-28T06:31:29.925Z,27.50
2018-12-28T06:33:59.994Z,26.10
2018-12-28T06:36:29.413Z,24.80
2018-12-28T06:38:59.069Z,26.83
2018-12-28T06:41:28.814Z,26.43
2018-12-28T06:43:58.535Z,26.00
2018-12-28T06:46:28.258Z,27.20
2018-12-28T06:48:57.914Z,27.00
2018-12-28T06:51:27.318Z,27.77
2018-12-28T06:54:31.875Z,27.10
2018-12-28T06:57:36.733Z,26.67
2018-12-28T07:01:05.876Z,27.50
2018-12-28T07:04:12.134Z,26.50
2018-12-28T07:07:39.424Z,25.70
2018-12-28T07:10:47.467Z,25.77
2018-12-28T07:14:13.808Z,26.33
2018-12-28T07:17:33.541Z,25.43
2018-12-28T07:20:34.014Z,27.77
2018-12-28T07:23:37.105Z,26.70
2018-12-28T07:26:48.258Z,27.00
2018-12-28T07:29:53.100Z,24.00
2018-12-28T07:32:57.808Z,24.13
2018-12-28T07:35:55.275Z,26.87
2018-12-28T07:38:50.341Z,26.83
2018-12-28T07:41:51.790Z,25.20
2018-12-28T07:44:44.132Z,25.33
2018-12-28T07:48:10.019Z,26.17
2018-12-28T07:51:31.057Z,24.60
2018-12-28T07:54:29.226Z,25.87
2018-12-28T07:57:37.561Z,26.20
2018-12-28T08:00:54.066Z,25.07
2018-12-28T08:04:03.416Z,24.63
2018-12-28T08:06:45.823Z,25.80
2018-12-28T08:09:33.655Z,25.40
2018-12-28T08:12:42.401Z,26.10
2018-12-28T08:15:54.004Z,25.30
2018-12-28T08:19:06.898Z,25.87
2018-12-28T08:21:58.618Z,26.10
2018-12-28T08:24:59.251Z,27.37
2018-12-28T08:28:13.126Z,27.40
2018-12-28T08:31:24.862Z,27.60
2018-12-28T08:34:33.602Z,26.17
2018-12-28T08:37:31.377Z,26.83
2018-12-28T08:40:46.482Z,28.03
2018-12-28T08:44:12.113Z,27.00
2018-12-28T08:47:36.851Z,25.80
2018-12-28T08:50:28.609Z,25.67
2018-12-28T08:53:42.987Z,26.00
2018-12-28T08:57:05.018Z,26.37
2018-12-28T09:00:05.017Z,25.47
2018-12-28T09:03:12.835Z,25.70
2018-12-28T09:06:28.117Z,25.07
2018-12-28T09:09:44.614Z,24.17
2018-12-28T09:12:39.339Z,23.40
2018-12-28T09:15:28.042Z,22.73
2018-12-28T09:18:40.063Z,21.87
2018-12-28T09:21:38.078Z,23.53
2018-12-28T09:24:45.290Z,21.80
2018-12-28T09:27:28.093Z,20.80
2018-12-28T09:30:37.113Z,20.57
2018-12-28T09:33:43.651Z,18.47
2018-12-28T09:36:45.863Z,19.23
2018-12-28T09:39:50.335Z,19.43
2018-12-28T09:43:03.931Z,18.80
2018-12-28T09:46:06.335Z,19.60
2018-12-28T09:49:12.420Z,18.90
2018-12-28T09:51:52.683Z,18.23
2018-12-28T09:54:39.380Z,18.27
2018-12-28T09:57:35.541Z,18.33
2018-12-28T10:00:44.905Z,16.33
2018-12-28T10:03:39.412Z,15.97
2018-12-28T10:06:52.677Z,15.40
2018-12-28T10:09:57.056Z,15.67
2018-12-28T10:12:59.492Z,14.80
2018-12-28T10:15:52.190Z,14.63
2018-12-28T10:18:21.632Z,15.27
2018-12-28T10:20:51.240Z,14.57
2018-12-28T10:23:20.949Z,14.33
2018-12-28T10:25:50.227Z,13.10
2018-12-28T10:28:19.801Z,13.43
2018-12-28T10:30:49.231Z,13.83
2018-12-28T10:33:19.396Z,12.67
2018-12-28T10:35:48.734Z,12.67
2018-12-28T10:38:18.167Z,13.57
2018-12-28T10:40:47.519Z,12.93
2018-12-28T10:43:17.275Z,13.13
2018-12-28T10:45:46.640Z,13.77
2018-12-28T10:48:16.047Z,13.10
2018-12-28T10:50:46.373Z,13.20
2018-12-28T10:53:15.790Z,12.90
2018-12-28T10:55:45.552Z,12.83
2018-12-28T10:58:14.942Z,11.40
2018-12-28T11:00:44.315Z,12.10
2018-12-28T11:03:14.004Z,13.37
2018-12-28T11:05:43.410Z,11.27
2018-12-28T11:08:12.765Z,10.90
2018-12-28T11:10:42.176Z,11.53
2018-12-28T11:13:11.787Z,8.80
2018-12-28T11:15:41.188Z,7.20
2018-12-28T11:18:11.397Z,6.20
2018-12-28T11:20:41.500Z,4.77
2018-12-28T11:23:10.825Z,4.77
2018-12-28T11:25:40.442Z,3.70
2018-12-28T11:28:09.849Z,3.03
2018-12-28T11:30:39.574Z,3.00
2018-12-28T11:33:09.561Z,2.67
2018-12-28T11:35:38.881Z,2.90
2018-12-28T11:38:08.269Z,2.73
2018-12-28T11:40:37.593Z,2.70
2018-12-28T11:43:07.162Z,2.80
2018-12-28T11:45:36.515Z,2.87
2018-12-28T11:48:05.958Z,2.77
2018-12-28T11:50:36.300Z,2.73
2018-12-28T11:53:06.144Z,3.00
2018-12-28T11:55:35.456Z,3.20
2018-12-28T11:58:04.858Z,3.17
2018-12-28T12:00:34.207Z,3.13
2018-12-28T12:03:03.652Z,3.33
2018-12-28T12:08:10.239Z,2.97
2018-12-28T12:10:40.041Z,3.60
2018-12-28T12:13:11.108Z,3.63
2018-12-28T12:15:41.886Z,3.43
2018-12-28T12:18:12.699Z,3.77
2018-12-28T12:20:43.646Z,4.97
2018-12-28T12:23:13.869Z,5.67
2018-12-28T12:25:43.753Z,6.20
2018-12-28T12:28:17.898Z,6.43
2018-12-28T12:30:45.955Z,6.97
2018-12-28T12:33:17.686Z,7.03
2018-12-28T12:35:48.175Z,7.10
2018-12-28T12:38:18.925Z,6.73
2018-12-28T12:40:49.316Z,7.47
2018-12-28T12:43:20.139Z,7.90
2018-12-28T12:45:50.964Z,7.33
2018-12-28T12:48:21.321Z,7.77
2018-12-28T12:50:50.736Z,7.93
2018-12-28T12:53:20.442Z,6.80
2018-12-28T12:55:50.154Z,6.20
2018-12-28T12:58:19.856Z,6.90
2018-12-28T13:00:49.737Z,6.90
2018-12-28T13:03:19.019Z,6.07
2018-12-28T13:05:50.281Z,7.10
2018-12-28T13:08:20.945Z,6.53
2018-12-28T13:10:51.216Z,7.10
2018-12-28T13:13:21.829Z,6.30
2018-12-28T13:15:51.781Z,7.57
2018-12-28T13:18:22.392Z,7.07
2018-12-28T13:20:52.957Z,7.67
2018-12-28T13:23:23.272Z,8.67
2018-12-28T13:25:53.596Z,8.57
2018-12-28T13:28:23.176Z,8.13
2018-12-28T13:30:52.589Z,9.77
2018-12-28T13:33:23.684Z,9.20
2018-12-28T13:35:53.096Z,9.73
2018-12-28T13:38:22.868Z,10.23
2018-12-28T13:40:52.554Z,10.43
2018-12-28T13:43:22.599Z,10.60
2018-12-28T13:45:52.411Z,11.30
2018-12-28T13:48:21.759Z,10.93
2018-12-28T13:50:51.050Z,12.73
2018-12-28T13:53:20.767Z,11.87
2018-12-28T13:55:50.770Z,12.60
2018-12-28T13:58:20.097Z,12.77
2018-12-28T14:00:49.470Z,12.53
2018-12-28T14:03:18.887Z,12.87
2018-12-28T14:05:48.413Z,14.40
2018-12-28T14:08:18.178Z,13.97
2018-12-28T14:10:47.509Z,13.83
2018-12-28T14:13:17.564Z,14.00
2018-12-28T14:15:47.173Z,14.97
2018-12-28T14:18:17.208Z,13.87
2018-12-28T14:20:46.614Z,15.60
2018-12-28T14:23:16.607Z,15.17
2018-12-28T14:25:46.010Z,15.03
2018-12-28T14:28:15.710Z,14.30
2018-12-28T14:30:45.153Z,15.50
2018-12-28T14:33:15.499Z,15.27
2018-12-28T14:35:44.891Z,17.10
2018-12-28T14:38:14.553Z,15.67
2018-12-28T14:40:44.478Z,16.90
2018-12-28T14:43:13.854Z,15.73
2018-12-28T14:45:43.261Z,15.70
2018-12-28T14:48:13.257Z,16.40
2018-12-28T14:50:42.687Z,15.80
2018-12-28T14:53:12.465Z,16.33
2018-12-28T14:55:41.819Z,16.67
2018-12-28T14:58:12.138Z,15.80
2018-12-28T15:00:54.099Z,16.17
2018-12-28T15:03:23.474Z,16.70
2018-12-28T15:05:52.946Z,16.47
2018-12-28T15:08:22.369Z,16.53
2018-12-28T15:10:51.817Z,15.30
2018-12-28T15:13:21.762Z,15.57
2018-12-28T15:15:51.148Z,15.40
2018-12-28T15:18:20.881Z,14.63
2018-12-28T15:20:50.305Z,15.00
2018-12-28T15:23:19.613Z,15.77
2018-12-28T15:25:49.484Z,14.97
2018-12-28T15:28:18.912Z,14.63
2018-12-28T15:30:48.312Z,13.20
2018-12-28T15:33:17.908Z,13.03
2018-12-28T15:35:47.309Z,11.80
2018-12-28T15:38:16.669Z,12.67
2018-12-28T15:40:46.357Z,11.50
2018-12-28T15:43:15.621Z,11.37
2018-12-28T15:45:45.026Z,11.07
2018-12-28T15:48:14.394Z,10.70
2018-12-28T15:50:43.809Z,10.13
2018-12-28T15:53:13.176Z,9.63
2018-12-28T15:55:42.490Z,9.17
2018-12-28T15:58:12.004Z,9.67
2018-12-28T16:00:41.742Z,8.83
2018-12-28T16:03:11.111Z,8.53
2018-12-28T16:05:40.526Z,8.40
2018-12-28T16:08:09.920Z,7.67
2018-12-28T16:10:39.333Z,7.80
2018-12-28T16:13:09.022Z,7.50
2018-12-28T16:15:38.364Z,7.17
2018-12-28T16:18:07.735Z,7.07
2018-12-28T16:20:37.198Z,7.60
2018-12-28T16:23:06.482Z,7.20
2018-12-28T16:25:36.014Z,7.17
2018-12-28T16:28:05.401Z,7.50
2018-12-28T16:30:35.708Z,7.60
2018-12-28T16:33:05.151Z,7.40
2018-12-28T16:35:34.477Z,7.70
2018-12-28T16:38:03.869Z,7.60
2018-12-28T16:40:33.288Z,7.83
2018-12-28T16:43:05.854Z,7.43
2018-12-28T16:45:33.729Z,7.47
2018-12-28T16:48:03.022Z,8.30
2018-12-28T16:50:32.447Z,9.90
2018-12-28T16:53:01.838Z,8.87
2018-12-28T16:55:31.905Z,9.83
2018-12-28T16:58:01.291Z,10.37
2018-12-28T17:00:30.681Z,10.60
2018-12-28T17:03:00.262Z,11.93
2018-12-28T17:05:29.973Z,23.57
2018-12-28T17:07:59.355Z,15.07
2018-12-28T17:10:28.752Z,12.70
2018-12-28T17:12:58.117Z,12.83
2018-12-28T17:15:27.472Z,13.37
2018-12-28T17:17:57.307Z,13.17
2018-12-28T17:20:26.642Z,12.80
2018-12-28T17:22:55.983Z,14.13
2018-12-28T17:25:25.880Z,14.47
2018-12-28T17:27:55.590Z,14.70
2018-12-28T17:30:24.905Z,17.10
2018-12-28T17:32:54.257Z,17.87
2018-12-28T17:35:23.634Z,17.77
2018-12-28T17:37:53.003Z,18.80
2018-12-28T17:40:22.441Z,19.90
2018-12-28T17:42:51.728Z,19.50
2018-12-28T17:45:21.044Z,20.47
2018-12-28T17:47:50.421Z,20.73
2018-12-28T17:50:20.301Z,19.60
2018-12-28T17:52:49.686Z,21.57
2018-12-28T17:55:19.118Z,21.57
2018-12-28T17:57:48.471Z,22.13
2018-12-28T18:00:17.983Z,23.10
2018-12-28T18:02:47.379Z,22.80
2018-12-28T18:05:16.790Z,25.03
2018-12-28T18:07:46.196Z,26.70
2018-12-28T18:10:15.792Z,25.60
2018-12-28T18:12:45.525Z,24.13
2018-12-28T18:15:15.047Z,26.03
2018-12-28T18:17:44.504Z,23.97
2018-12-28T18:20:14.182Z,23.33
2018-12-28T18:22:43.840Z,23.47
2018-12-28T18:25:13.238Z,23.27
2018-12-28T18:27:42.667Z,22.70
2018-12-28T18:30:12.116Z,23.20
2018-12-28T18:32:41.525Z,23.83
2018-12-28T18:35:10.882Z,24.53
2018-12-28T18:37:40.610Z,22.33
2018-12-28T18:40:10.149Z,22.70
2018-12-28T18:42:39.770Z,22.57
2018-12-28T18:45:09.140Z,22.60
2018-12-28T18:47:38.459Z,23.10
2018-12-28T18:50:07.951Z,22.03
2018-12-28T18:52:38.054Z,23.10
2018-12-28T18:55:07.427Z,22.50
2018-12-28T18:57:37.128Z,21.80
2018-12-28T19:00:06.829Z,21.37
2018-12-28T19:02:36.138Z,21.77
2018-12-28T19:05:05.651Z,22.33
2018-12-28T19:07:35.029Z,21.13
2018-12-28T19:10:04.429Z,20.70
2018-12-28T19:12:33.841Z,20.43
2018-12-28T19:15:03.197Z,20.27
2018-12-28T19:17:32.649Z,21.77
2018-12-28T19:20:02.174Z,19.73
2018-12-28T19:22:31.830Z,21.13
2018-12-28T19:25:01.571Z,20.00
2018-12-28T19:27:30.925Z,20.70
2018-12-28T19:30:00.327Z,19.77
2018-12-28T19:32:29.593Z,20.23
2018-12-28T19:34:58.897Z,20.33
2018-12-28T19:37:28.254Z,20.53
2018-12-28T19:39:58.029Z,20.47
2018-12-28T19:42:27.340Z,20.03
2018-12-28T19:44:56.782Z,19.40
2018-12-28T19:47:26.413Z,20.47
2018-12-28T19:49:57.070Z,20.07
2018-12-28T19:52:26.437Z,20.00
2018-12-28T19:54:55.773Z,19.27
2018-12-28T19:57:25.914Z,21.00
2018-12-28T19:59:55.681Z,19.67
2018-12-28T20:02:25.083Z,20.57
2018-12-28T20:04:54.553Z,21.57
2018-12-28T20:07:24.272Z,20.20
2018-12-28T20:09:53.966Z,20.10
2018-12-28T20:12:23.299Z,20.67
2018-12-28T20:14:52.911Z,20.83
2018-12-28T20:17:22.327Z,22.53
2018-12-28T20:19:51.982Z,22.07
2018-12-28T20:22:21.348Z,22.40
2018-12-28T20:24:50.659Z,22.53
2018-12-28T20:27:20.012Z,24.13
2018-12-28T20:29:49.421Z,22.67
2018-12-28T20:32:18.818Z,23.93
2018-12-28T20:34:48.114Z,24.23
2018-12-28T20:37:17.848Z,23.03
2018-12-28T20:39:47.162Z,25.90
2018-12-28T20:42:16.542Z,24.20
2018-12-28T20:44:45.925Z,25.50
2018-12-28T20:47:15.311Z,24.80
2018-12-28T20:49:44.977Z,25.50
2018-12-28T20:52:14.644Z,24.87
2018-12-28T20:54:44.009Z,24.70
2018-12-28T20:57:13.422Z,25.00
2018-12-28T20:59:42.814Z,24.77
2018-12-28T21:02:12.214Z,25.57
2018-12-28T21:04:41.663Z,24.60
2018-12-28T21:07:11.087Z,23.83
2018-12-28T21:09:40.498Z,24.17
2018-12-28T21:12:09.886Z,22.10
2018-12-28T21:14:39.206Z,22.50
2018-12-28T21:17:08.733Z,22.40
2018-12-28T21:19:38.300Z,21.27
2018-12-28T21:22:07.681Z,21.90
2018-12-28T21:24:37.105Z,20.47
2018-12-28T21:27:06.818Z,21.27
2018-12-28T21:29:36.247Z,20.37
2018-12-28T21:32:05.629Z,20.87
2018-12-28T21:34:34.951Z,21.13
2018-12-28T21:37:04.330Z,19.90
2018-12-28T21:39:33.625Z,19.93
2018-12-28T21:42:03.517Z,19.47
2018-12-28T21:44:33.124Z,19.93
2018-12-28T21:47:02.429Z,19.93
2018-12-28T21:49:32.038Z,21.20
2018-12-28T21:52:01.456Z,22.73
2018-12-28T21:54:30.739Z,21.33
2018-12-28T21:57:00.461Z,21.63
2018-12-28T21:59:30.096Z,21.67
2018-12-28T22:01:59.562Z,22.47
2018-12-28T22:04:28.921Z,22.80
2018-12-28T22:06:58.883Z,23.30
2018-12-28T22:09:28.382Z,23.50
2018-12-28T22:11:57.702Z,22.40
2018-12-28T22:14:27.457Z,24.00
2018-12-28T22:16:56.867Z,24.00
2018-12-28T22:19:26.484Z,23.87
2018-12-28T22:21:55.879Z,24.80
2018-12-28T22:24:25.488Z,24.10
2018-12-28T22:26:54.828Z,24.00
2018-12-28T22:29:24.441Z,24.60
2018-12-28T22:31:54.669Z,25.00
2018-12-28T22:34:24.013Z,25.37
2018-12-28T22:36:53.377Z,23.87
2018-12-28T22:39:22.843Z,26.47
2018-12-28T22:41:52.460Z,24.57
2018-12-28T22:44:21.770Z,24.73
2018-12-28T22:46:51.709Z,25.93
2018-12-28T22:49:21.106Z,24.97
2018-12-28T22:51:50.485Z,25.63
2018-12-28T22:54:19.807Z,26.40
2018-12-28T22:56:49.090Z,25.37
2018-12-28T22:59:18.808Z,26.17
2018-12-28T23:01:48.167Z,27.13
2018-12-28T23:04:17.819Z,25.33
2018-12-28T23:06:47.174Z,25.27
2018-12-28T23:09:16.799Z,25.30
2018-12-28T23:11:46.083Z,26.63
2018-12-28T23:14:15.486Z,26.27
2018-12-28T23:16:44.832Z,25.07
2018-12-28T23:19:14.223Z,25.23
2018-12-28T23:21:43.486Z,24.63
2018-12-28T23:24:13.205Z,23.40
2018-12-28T23:26:42.586Z,24.43
2018-12-28T23:29:12.219Z,24.10
2018-12-28T23:31:41.922Z,23.93
2018-12-28T23:34:11.250Z,23.97
2018-12-28T23:36:40.594Z,22.97
2018-12-28T23:39:09.946Z,24.10
2018-12-28T23:41:39.778Z,23.63
2018-12-28T23:44:09.205Z,24.73
2018-12-28T23:46:38.479Z,23.97
2018-12-28T23:49:08.001Z,23.73
2018-12-28T23:51:37.728Z,24.10
2018-12-28T23:54:07.046Z,24.20
2018-12-28T23:56:36.348Z,23.73
2018-12-28T23:59:05.835Z,24.73
